Etusivu
METAR-TAF:

METAR-TAF

Lentoasemat :

Starkville, Mississippi, Yhdysvallat

Leveyspiiri: 33-25-59N, Pituuspiiri: 088-50-55W, korkeus merenpinnasta: 101 m

Tämänhetkinen sää

Tämä raportti tehtiin 22 minuuttia sitten, kello 03.35 UTC
Tuuli 18 kn etelästä puuskistuen 27 kn:hen
Lämpötila 24°C
Kosteus 89%
Ilmanpaine 1003 hPa
Näkyvyys: 16.1 km
Hajonneita pilviä 1800 ft:n korkeudessa
Hajonneita pilviä 2200 ft:n korkeudessa
Pilvistä 2700 ft:n korkeudessa
ukkosta näköpiirissä

METAR: KSTF 250335Z AUTO 19018G27KT 10SM VCTS BKN018 BKN022 OVC027 24/22 A2962 RMK AO2 LTG DSNT W-NE

Aika: 22:57 (03:57 UTC)


TAF: puuttuu

Säähavainnot ja -ennusteet yli 4000 lentoasemalta (METAR- ja TAF-raportit).

Käytössä olevat sääasemat on merkitty karttaan keltaisilla ja punaisilla pisteillä.

Aseta hiiri pisteen päälle nähdäksesi sääaseman nimen.

Klikkaa sitten nähdäksesi säähavainnot ja -ennusteet.

Kartan vaihtaminen: klikkaa mustalla rastilla varustettuja vihreitä pisteitä, niin voit zoomata sisään; viivalla varustettua vihreää pistettä, niin voit zoomata ulos tai vihreitä nuolia, niin pääset viereisille kartoille.


METAR-TAF: